sensor_id;sensor_type;location;lat;lon;timestamp;pressure;altitude;pressure_sealevel;temperature;humidity
68226;BME280;55045;49.410;11.030;2023-06-24T00:01:17;98956.78;;;15.37;100.00
68226;BME280;55045;49.410;11.030;2023-06-24T00:04:20;98944.56;;;15.37;100.00
68226;BME280;55045;49.410;11.030;2023-06-24T00:07:24;98944.53;;;15.21;100.00
68226;BME280;55045;49.410;11.030;2023-06-24T00:10:28;98946.47;;;15.18;100.00
68226;BME280;55045;49.410;11.030;2023-06-24T00:13:31;98940.31;;;15.03;100.00
68226;BME280;55045;49.410;11.030;2023-06-24T00:16:35;98946.16;;;14.91;100.00
68226;BME280;55045;49.410;11.030;2023-06-24T00:19:38;98948.94;;;14.88;100.00
68226;BME280;55045;49.410;11.030;2023-06-24T00:22:43;98944.53;;;14.73;100.00
68226;BME280;55045;49.410;11.030;2023-06-24T00:25:50;98947.06;;;14.74;100.00
68226;BME280;55045;49.410;11.030;2023-06-24T00:28:53;98951.91;;;14.82;100.00
68226;BME280;55045;49.410;11.030;2023-06-24T00:31:56;98934.88;;;14.57;100.00
68226;BME280;55045;49.410;11.030;2023-06-24T00:35:00;98940.06;;;14.40;100.00
68226;BME280;55045;49.410;11.030;2023-06-24T00:38:05;98930.97;;;14.31;100.00
68226;BME280;55045;49.410;11.030;2023-06-24T00:41:09;98931.00;;;14.30;100.00
68226;BME280;55045;49.410;11.030;2023-06-24T00:44:12;98939.63;;;14.15;100.00
68226;BME280;55045;49.410;11.030;2023-06-24T00:47:15;98933.72;;;14.11;100.00
68226;BME280;55045;49.410;11.030;2023-06-24T00:50:19;98930.66;;;14.20;100.00
68226;BME280;55045;49.410;11.030;2023-06-24T00:53:23;98922.25;;;13.96;100.00
68226;BME280;55045;49.410;11.030;2023-06-24T00:56:30;98926.09;;;13.89;100.00
68226;BME280;55045;49.410;11.030;2023-06-24T00:59:34;98924.06;;;13.77;100.00
68226;BME280;55045;49.410;11.030;2023-06-24T01:02:46;98890.22;;;13.58;100.00
68226;BME280;55045;49.410;11.030;2023-06-24T01:05:50;98921.22;;;13.64;100.00
68226;BME280;55045;49.410;11.030;2023-06-24T01:08:56;98923.97;;;13.61;100.00
68226;BME280;55045;49.410;11.030;2023-06-24T01:11:59;98923.16;;;13.61;100.00
68226;BME280;55045;49.410;11.030;2023-06-24T01:15:06;98923.56;;;13.51;100.00
68226;BME280;55045;49.410;11.030;2023-06-24T01:18:13;98924.66;;;13.65;100.00
68226;BME280;55045;49.410;11.030;2023-06-24T01:21:28;98923.66;;;13.50;100.00
68226;BME280;55045;49.410;11.030;2023-06-24T01:24:58;98932.09;;;13.36;100.00
68226;BME280;55045;49.410;11.030;2023-06-24T01:28:20;98926.34;;;13.30;100.00
68226;BME280;55045;49.410;11.030;2023-06-24T01:31:34;98924.84;;;13.24;100.00
68226;BME280;55045;49.410;11.030;2023-06-24T01:34:43;98922.31;;;13.22;100.00
68226;BME280;55045;49.410;11.030;2023-06-24T01:37:50;98920.81;;;13.36;100.00
68226;BME280;55045;49.410;11.030;2023-06-24T01:40:55;98923.16;;;13.23;100.00
68226;BME280;55045;49.410;11.030;2023-06-24T01:43:59;98910.78;;;13.08;100.00
68226;BME280;55045;49.410;11.030;2023-06-24T01:47:06;98908.41;;;13.03;100.00
68226;BME280;55045;49.410;11.030;2023-06-24T01:50:12;98904.50;;;13.32;100.00
68226;BME280;55045;49.410;11.030;2023-06-24T01:53:16;98891.19;;;13.01;100.00
68226;BME280;55045;49.410;11.030;2023-06-24T01:56:23;98905.13;;;13.00;100.00
68226;BME280;55045;49.410;11.030;2023-06-24T01:59:28;98898.63;;;12.89;100.00
68226;BME280;55045;49.410;11.030;2023-06-24T02:02:35;98908.19;;;13.08;100.00
68226;BME280;55045;49.410;11.030;2023-06-24T02:05:40;98902.50;;;13.00;100.00
68226;BME280;55045;49.410;11.030;2023-06-24T02:08:48;98887.31;;;12.90;100.00
68226;BME280;55045;49.410;11.030;2023-06-24T02:11:54;98898.34;;;12.95;100.00
68226;BME280;55045;49.410;11.030;2023-06-24T02:14:59;98898.97;;;13.21;100.00
68226;BME280;55045;49.410;11.030;2023-06-24T02:18:08;98892.88;;;13.75;100.00
68226;BME280;55045;49.410;11.030;2023-06-24T02:21:12;98890.38;;;13.55;100.00
68226;BME280;55045;49.410;11.030;2023-06-24T02:24:16;98893.59;;;13.24;100.00
68226;BME280;55045;49.410;11.030;2023-06-24T02:27:20;98884.28;;;13.00;100.00
68226;BME280;55045;49.410;11.030;2023-06-24T02:30:24;98896.44;;;13.19;100.00
68226;BME280;55045;49.410;11.030;2023-06-24T02:33:29;98889.06;;;12.90;100.00
68226;BME280;55045;49.410;11.030;2023-06-24T02:36:33;98890.47;;;12.97;100.00
68226;BME280;55045;49.410;11.030;2023-06-24T02:39:37;98895.38;;;12.84;100.00
68226;BME280;55045;49.410;11.030;2023-06-24T02:42:46;98898.63;;;12.89;100.00
68226;BME280;55045;49.410;11.030;2023-06-24T02:45:49;98904.53;;;12.93;100.00
68226;BME280;55045;49.410;11.030;2023-06-24T02:48:56;98897.50;;;12.95;100.00
68226;BME280;55045;49.410;11.030;2023-06-24T02:52:00;98905.69;;;12.87;100.00
68226;BME280;55045;49.410;11.030;2023-06-24T02:55:05;98913.97;;;12.95;100.00
68226;BME280;55045;49.410;11.030;2023-06-24T02:58:13;98898.53;;;13.30;100.00
68226;BME280;55045;49.410;11.030;2023-06-24T03:01:30;98912.13;;;13.16;100.00
68226;BME280;55045;49.410;11.030;2023-06-24T03:04:37;98911.03;;;13.60;100.00
68226;BME280;55045;49.410;11.030;2023-06-24T03:07:41;98913.97;;;13.14;100.00
68226;BME280;55045;49.410;11.030;2023-06-24T03:10:45;98913.50;;;12.87;100.00
68226;BME280;55045;49.410;11.030;2023-06-24T03:13:54;98921.81;;;12.75;100.00
68226;BME280;55045;49.410;11.030;2023-06-24T03:17:03;98913.53;;;12.67;100.00
68226;BME280;55045;49.410;11.030;2023-06-24T03:20:09;98907.91;;;12.56;100.00
68226;BME280;55045;49.410;11.030;2023-06-24T03:23:13;98922.63;;;12.77;100.00
68226;BME280;55045;49.410;11.030;2023-06-24T03:26:18;98919.13;;;12.58;100.00
68226;BME280;55045;49.410;11.030;2023-06-24T03:29:21;98932.38;;;12.72;100.00
68226;BME280;55045;49.410;11.030;2023-06-24T03:34:11;98947.13;;;12.92;100.00
68226;BME280;55045;49.410;11.030;2023-06-24T03:37:15;98944.88;;;12.64;100.00
68226;BME280;55045;49.410;11.030;2023-06-24T03:40:20;98949.69;;;12.53;100.00
68226;BME280;55045;49.410;11.030;2023-06-24T03:43:26;98952.59;;;12.47;100.00
68226;BME280;55045;49.410;11.030;2023-06-24T03:46:30;98960.31;;;12.48;100.00
68226;BME280;55045;49.410;11.030;2023-06-24T03:49:36;98966.59;;;12.43;100.00
68226;BME280;55045;49.410;11.030;2023-06-24T03:52:40;98969.88;;;12.48;100.00
68226;BME280;55045;49.410;11.030;2023-06-24T03:55:43;98969.66;;;12.52;100.00
68226;BME280;55045;49.410;11.030;2023-06-24T03:58:48;98971.03;;;12.61;100.00
68226;BME280;55045;49.410;11.030;2023-06-24T04:01:51;98975.41;;;12.60;100.00
68226;BME280;55045;49.410;11.030;2023-06-24T04:04:56;98976.31;;;12.59;100.00
68226;BME280;55045;49.410;11.030;2023-06-24T04:08:00;98977.84;;;12.63;100.00
68226;BME280;55045;49.410;11.030;2023-06-24T04:11:08;98977.53;;;12.71;100.00
68226;BME280;55045;49.410;11.030;2023-06-24T04:14:12;98977.75;;;13.06;100.00
68226;BME280;55045;49.410;11.030;2023-06-24T04:17:15;98992.19;;;13.13;100.00
68226;BME280;55045;49.410;11.030;2023-06-24T04:20:20;98989.38;;;13.17;100.00
68226;BME280;55045;49.410;11.030;2023-06-24T04:23:25;98995.97;;;13.26;100.00
68226;BME280;55045;49.410;11.030;2023-06-24T04:26:30;98992.50;;;13.25;100.00
68226;BME280;55045;49.410;11.030;2023-06-24T04:29:34;98993.19;;;13.10;100.00
68226;BME280;55045;49.410;11.030;2023-06-24T04:32:37;98984.22;;;13.16;100.00
68226;BME280;55045;49.410;11.030;2023-06-24T04:35:42;98990.13;;;13.40;100.00
68226;BME280;55045;49.410;11.030;2023-06-24T04:38:46;98990.19;;;13.57;100.00
68226;BME280;55045;49.410;11.030;2023-06-24T04:41:49;98993.22;;;13.67;100.00
68226;BME280;55045;49.410;11.030;2023-06-24T04:44:52;99001.44;;;13.95;100.00
68226;BME280;55045;49.410;11.030;2023-06-24T04:47:55;98992.81;;;14.12;100.00
68226;BME280;55045;49.410;11.030;2023-06-24T04:51:00;98989.63;;;14.05;100.00
68226;BME280;55045;49.410;11.030;2023-06-24T04:54:03;98989.75;;;13.85;100.00
68226;BME280;55045;49.410;11.030;2023-06-24T04:57:09;98996.84;;;14.18;100.00
68226;BME280;55045;49.410;11.030;2023-06-24T05:00:13;98990.88;;;14.16;100.00
68226;BME280;55045;49.410;11.030;2023-06-24T05:03:16;98996.84;;;14.18;100.00
68226;BME280;55045;49.410;11.030;2023-06-24T05:06:20;98998.25;;;14.25;100.00
68226;BME280;55045;49.410;11.030;2023-06-24T05:09:24;99006.41;;;14.36;100.00
68226;BME280;55045;49.410;11.030;2023-06-24T05:12:27;98996.59;;;14.76;100.00
68226;BME280;55045;49.410;11.030;2023-06-24T05:15:30;98983.00;;;14.69;100.00
68226;BME280;55045;49.410;11.030;2023-06-24T05:18:34;98980.47;;;14.67;100.00
68226;BME280;55045;49.410;11.030;2023-06-24T05:21:39;98982.66;;;15.25;100.00
68226;BME280;55045;49.410;11.030;2023-06-24T05:24:43;98981.19;;;15.53;100.00
68226;BME280;55045;49.410;11.030;2023-06-24T05:27:46;98986.53;;;16.13;100.00
68226;BME280;55045;49.410;11.030;2023-06-24T05:30:49;99001.69;;;16.08;100.00
68226;BME280;55045;49.410;11.030;2023-06-24T05:33:52;98986.41;;;16.46;100.00
68226;BME280;55045;49.410;11.030;2023-06-24T05:36:57;98981.63;;;16.23;100.00
68226;BME280;55045;49.410;11.030;2023-06-24T05:40:00;98947.47;;;16.40;100.00
68226;BME280;55045;49.410;11.030;2023-06-24T05:43:04;98989.00;;;16.00;100.00
68226;BME280;55045;49.410;11.030;2023-06-24T05:46:07;98990.63;;;15.71;100.00
68226;BME280;55045;49.410;11.030;2023-06-24T05:49:11;98998.72;;;15.98;100.00
68226;BME280;55045;49.410;11.030;2023-06-24T05:52:16;98982.75;;;16.19;100.00
68226;BME280;55045;49.410;11.030;2023-06-24T05:55:19;98989.91;;;16.75;100.00
68226;BME280;55045;49.410;11.030;2023-06-24T05:58:22;98985.28;;;17.37;100.00
68226;BME280;55045;49.410;11.030;2023-06-24T06:01:25;98977.78;;;18.13;100.00
68226;BME280;55045;49.410;11.030;2023-06-24T06:04:29;98985.66;;;17.87;100.00
68226;BME280;55045;49.410;11.030;2023-06-24T06:07:33;98979.34;;;18.43;100.00
68226;BME280;55045;49.410;11.030;2023-06-24T06:10:36;98979.31;;;19.08;100.00
68226;BME280;55045;49.410;11.030;2023-06-24T06:13:40;98987.19;;;19.34;100.00
68226;BME280;55045;49.410;11.030;2023-06-24T06:16:43;98981.50;;;18.89;100.00
68226;BME280;55045;49.410;11.030;2023-06-24T06:19:46;98976.16;;;19.16;100.00
68226;BME280;55045;49.410;11.030;2023-06-24T06:22:54;98974.22;;;19.31;100.00
68226;BME280;55045;49.410;11.030;2023-06-24T06:25:58;98977.25;;;19.63;100.00
68226;BME280;55045;49.410;11.030;2023-06-24T06:29:01;98965.66;;;19.65;100.00
68226;BME280;55045;49.410;11.030;2023-06-24T06:32:05;98966.84;;;20.79;100.00
68226;BME280;55045;49.410;11.030;2023-06-24T06:35:08;98967.00;;;21.34;100.00
68226;BME280;55045;49.410;11.030;2023-06-24T06:38:13;98972.59;;;21.74;100.00
68226;BME280;55045;49.410;11.030;2023-06-24T06:41:16;98969.72;;;20.41;100.00
68226;BME280;55045;49.410;11.030;2023-06-24T06:44:20;98968.19;;;20.96;100.00
68226;BME280;55045;49.410;11.030;2023-06-24T06:47:23;98949.38;;;21.34;100.00
68226;BME280;55045;49.410;11.030;2023-06-24T06:50:26;98964.03;;;21.27;100.00
68226;BME280;55045;49.410;11.030;2023-06-24T06:53:31;98964.94;;;21.71;100.00
68226;BME280;55045;49.410;11.030;2023-06-24T06:56:35;98965.19;;;20.89;100.00
68226;BME280;55045;49.410;11.030;2023-06-24T06:59:38;98968.59;;;21.36;100.00
68226;BME280;55045;49.410;11.030;2023-06-24T07:02:45;98968.44;;;21.49;100.00
68226;BME280;55045;49.410;11.030;2023-06-24T07:05:48;98963.63;;;21.54;100.00
68226;BME280;55045;49.410;11.030;2023-06-24T07:08:53;98948.78;;;21.19;100.00
68226;BME280;55045;49.410;11.030;2023-06-24T07:11:56;98949.25;;;21.13;100.00
68226;BME280;55045;49.410;11.030;2023-06-24T07:14:59;98946.00;;;22.09;100.00
68226;BME280;55045;49.410;11.030;2023-06-24T07:18:03;98947.56;;;21.57;100.00
68226;BME280;55045;49.410;11.030;2023-06-24T07:21:06;98951.16;;;21.67;100.00
68226;BME280;55045;49.410;11.030;2023-06-24T07:24:11;98946.06;;;21.87;100.00
68226;BME280;55045;49.410;11.030;2023-06-24T07:27:14;98940.09;;;22.79;100.00
68226;BME280;55045;49.410;11.030;2023-06-24T07:30:17;98939.72;;;22.42;100.00
68226;BME280;55045;49.410;11.030;2023-06-24T07:33:20;98933.31;;;22.45;100.00
68226;BME280;55045;49.410;11.030;2023-06-24T07:36:23;98930.75;;;22.54;100.00
68226;BME280;55045;49.410;11.030;2023-06-24T07:39:28;98933.66;;;22.30;100.00
68226;BME280;55045;49.410;11.030;2023-06-24T07:42:31;98934.16;;;22.24;100.00
68226;BME280;55045;49.410;11.030;2023-06-24T07:45:34;98929.34;;;22.50;100.00
68226;BME280;55045;49.410;11.030;2023-06-24T07:48:38;98926.75;;;22.81;98.96
68226;BME280;55045;49.410;11.030;2023-06-24T07:51:41;98933.34;;;23.26;98.72
68226;BME280;55045;49.410;11.030;2023-06-24T07:54:48;98916.56;;;23.07;96.09
68226;BME280;55045;49.410;11.030;2023-06-24T07:57:51;98880.31;;;22.46;97.13
68226;BME280;55045;49.410;11.030;2023-06-24T08:00:54;98936.34;;;23.43;97.86
68226;BME280;55045;49.410;11.030;2023-06-24T08:03:58;98942.28;;;23.25;96.33
68226;BME280;55045;49.410;11.030;2023-06-24T08:07:02;98925.78;;;23.52;93.57
68226;BME280;55045;49.410;11.030;2023-06-24T08:10:08;98931.47;;;23.08;95.68
68226;BME280;55045;49.410;11.030;2023-06-24T08:13:11;98931.03;;;23.93;93.68
68226;BME280;55045;49.410;11.030;2023-06-24T08:16:16;98934.53;;;23.43;95.07
68226;BME280;55045;49.410;11.030;2023-06-24T08:19:20;98938.25;;;23.91;93.97
68226;BME280;55045;49.410;11.030;2023-06-24T08:22:24;98933.97;;;24.38;90.87
68226;BME280;55045;49.410;11.030;2023-06-24T08:25:30;98935.63;;;24.10;90.94
68226;BME280;55045;49.410;11.030;2023-06-24T08:28:34;98939.94;;;23.32;95.78
68226;BME280;55045;49.410;11.030;2023-06-24T08:31:37;98938.34;;;23.60;95.13
68226;BME280;55045;49.410;11.030;2023-06-24T08:34:41;98940.75;;;23.63;94.65
68226;BME280;55045;49.410;11.030;2023-06-24T08:37:44;98927.75;;;23.10;92.66
68226;BME280;55045;49.410;11.030;2023-06-24T08:40:49;98932.25;;;23.79;94.15
68226;BME280;55045;49.410;11.030;2023-06-24T08:43:53;98925.72;;;24.41;90.41
68226;BME280;55045;49.410;11.030;2023-06-24T08:46:56;98929.22;;;23.03;94.52
68226;BME280;55045;49.410;11.030;2023-06-24T08:50:04;98928.63;;;22.48;98.93
68226;BME280;55045;49.410;11.030;2023-06-24T08:53:09;98917.16;;;23.10;96.32
68226;BME280;55045;49.410;11.030;2023-06-24T08:56:15;98935.16;;;23.26;94.66
68226;BME280;55045;49.410;11.030;2023-06-24T08:59:18;98931.22;;;23.51;89.60
68226;BME280;55045;49.410;11.030;2023-06-24T09:02:22;98926.91;;;23.10;88.45
68226;BME280;55045;49.410;11.030;2023-06-24T09:05:25;98922.88;;;22.85;90.48
68226;BME280;55045;49.410;11.030;2023-06-24T09:08:29;98923.72;;;23.16;87.26
68226;BME280;55045;49.410;11.030;2023-06-24T09:11:34;98908.16;;;24.01;83.37
68226;BME280;55045;49.410;11.030;2023-06-24T09:14:37;98913.41;;;24.30;86.60
68226;BME280;55045;49.410;11.030;2023-06-24T09:17:45;98922.78;;;23.26;88.27
68226;BME280;55045;49.410;11.030;2023-06-24T09:20:48;98923.69;;;23.56;84.82
68226;BME280;55045;49.410;11.030;2023-06-24T09:23:53;98917.34;;;24.26;79.26
68226;BME280;55045;49.410;11.030;2023-06-24T09:26:58;98908.66;;;24.73;79.72
68226;BME280;55045;49.410;11.030;2023-06-24T09:34:13;98912.25;;;24.71;77.42
68226;BME280;55045;49.410;11.030;2023-06-24T09:37:21;98908.97;;;24.50;73.64
68226;BME280;55045;49.410;11.030;2023-06-24T09:40:24;98907.22;;;24.78;75.69
68226;BME280;55045;49.410;11.030;2023-06-24T09:43:28;98901.53;;;25.00;71.99
68226;BME280;55045;49.410;11.030;2023-06-24T09:46:32;98843.69;;;24.20;72.07
68226;BME280;55045;49.410;11.030;2023-06-24T09:49:39;98906.72;;;24.92;64.62
68226;BME280;55045;49.410;11.030;2023-06-24T09:52:43;98896.97;;;24.56;66.89
68226;BME280;55045;49.410;11.030;2023-06-24T09:55:47;98891.56;;;24.85;66.39
68226;BME280;55045;49.410;11.030;2023-06-24T09:58:51;98885.50;;;24.92;65.94
68226;BME280;55045;49.410;11.030;2023-06-24T10:01:55;98873.56;;;24.32;68.67
68226;BME280;55045;49.410;11.030;2023-06-24T10:05:01;98884.03;;;24.80;66.53
68226;BME280;55045;49.410;11.030;2023-06-24T10:08:05;98881.00;;;25.58;66.42
68226;BME280;55045;49.410;11.030;2023-06-24T10:11:08;98871.81;;;25.07;67.50
68226;BME280;55045;49.410;11.030;2023-06-24T10:14:12;98871.31;;;25.21;68.57
68226;BME280;55045;49.410;11.030;2023-06-24T10:17:16;98861.22;;;25.70;60.89
68226;BME280;55045;49.410;11.030;2023-06-24T10:20:25;98867.06;;;25.28;62.21
68226;BME280;55045;49.410;11.030;2023-06-24T10:23:30;98868.00;;;25.09;64.49
68226;BME280;55045;49.410;11.030;2023-06-24T10:26:35;98864.63;;;25.17;61.36
68226;BME280;55045;49.410;11.030;2023-06-24T10:29:39;98846.97;;;24.61;61.60
68226;BME280;55045;49.410;11.030;2023-06-24T10:32:51;98840.50;;;24.73;60.62
68226;BME280;55045;49.410;11.030;2023-06-24T10:35:56;98849.75;;;25.69;61.19
68226;BME280;55045;49.410;11.030;2023-06-24T10:38:59;98847.03;;;25.34;51.96
68226;BME280;55045;49.410;11.030;2023-06-24T10:42:33;98845.50;;;25.13;54.14
68226;BME280;55045;49.410;11.030;2023-06-24T10:45:48;98848.88;;;25.33;60.79
68226;BME280;55045;49.410;11.030;2023-06-24T10:48:52;98832.84;;;25.88;57.76
68226;BME280;55045;49.410;11.030;2023-06-24T10:51:56;98834.00;;;25.86;57.70
68226;BME280;55045;49.410;11.030;2023-06-24T10:54:59;98838.50;;;24.85;57.56
68226;BME280;55045;49.410;11.030;2023-06-24T10:58:09;98827.53;;;24.97;57.62
68226;BME280;55045;49.410;11.030;2023-06-24T11:01:14;98823.84;;;24.53;59.67
68226;BME280;55045;49.410;11.030;2023-06-24T11:04:17;98820.97;;;24.74;57.12
68226;BME280;55045;49.410;11.030;2023-06-24T11:07:24;98809.47;;;25.11;60.07
68226;BME280;55045;49.410;11.030;2023-06-24T11:10:28;98802.13;;;25.05;60.03
68226;BME280;55045;49.410;11.030;2023-06-24T11:13:33;98810.16;;;25.13;60.75
68226;BME280;55045;49.410;11.030;2023-06-24T11:16:38;98803.91;;;24.77;59.94
68226;BME280;55045;49.410;11.030;2023-06-24T11:19:42;98798.13;;;25.54;60.81
68226;BME280;55045;49.410;11.030;2023-06-24T11:22:47;98799.72;;;25.47;59.55
68226;BME280;55045;49.410;11.030;2023-06-24T11:25:50;98791.38;;;25.24;60.94
68226;BME280;55045;49.410;11.030;2023-06-24T11:28:55;98788.44;;;26.32;60.56
68226;BME280;55045;49.410;11.030;2023-06-24T11:31:58;98781.59;;;25.42;60.97
68226;BME280;55045;49.410;11.030;2023-06-24T11:35:02;98782.31;;;24.34;65.41
68226;BME280;55045;49.410;11.030;2023-06-24T11:38:08;98780.53;;;24.06;65.53
68226;BME280;55045;49.410;11.030;2023-06-24T11:41:12;98780.03;;;23.73;65.87
68226;BME280;55045;49.410;11.030;2023-06-24T11:44:17;98779.88;;;24.78;66.00
68226;BME280;55045;49.410;11.030;2023-06-24T11:47:23;98778.75;;;24.81;61.08
68226;BME280;55045;49.410;11.030;2023-06-24T11:50:26;98770.34;;;25.66;63.08
68226;BME280;55045;49.410;11.030;2023-06-24T11:53:40;98764.13;;;25.22;56.84
68226;BME280;55045;49.410;11.030;2023-06-24T11:56:49;98734.63;;;24.80;58.11
68226;BME280;55045;49.410;11.030;2023-06-24T11:59:53;98763.06;;;25.68;54.89
68226;BME280;55045;49.410;11.030;2023-06-24T12:02:57;98756.44;;;25.90;55.85
68226;BME280;55045;49.410;11.030;2023-06-24T12:06:01;98760.03;;;26.33;55.62
68226;BME280;55045;49.410;11.030;2023-06-24T12:09:06;98727.06;;;26.18;56.68
68226;BME280;55045;49.410;11.030;2023-06-24T12:12:12;98757.16;;;26.52;55.10
68226;BME280;55045;49.410;11.030;2023-06-24T12:15:15;98759.34;;;26.05;54.67
68226;BME280;55045;49.410;11.030;2023-06-24T12:18:18;98757.13;;;25.92;55.62
68226;BME280;55045;49.410;11.030;2023-06-24T12:21:22;98753.63;;;26.18;50.98
68226;BME280;55045;49.410;11.030;2023-06-24T12:24:27;98748.06;;;25.77;50.23
68226;BME280;55045;49.410;11.030;2023-06-24T12:27:30;98745.22;;;25.61;51.44
68226;BME280;55045;49.410;11.030;2023-06-24T12:30:33;98740.91;;;25.60;52.06
68226;BME280;55045;49.410;11.030;2023-06-24T12:33:37;98734.59;;;25.78;53.50
68226;BME280;55045;49.410;11.030;2023-06-24T12:36:40;98732.84;;;25.87;52.81
68226;BME280;55045;49.410;11.030;2023-06-24T12:39:45;98737.00;;;26.16;52.04
68226;BME280;55045;49.410;11.030;2023-06-24T12:42:49;98731.53;;;25.91;54.31
68226;BME280;55045;49.410;11.030;2023-06-24T12:45:52;98721.22;;;25.44;52.61
68226;BME280;55045;49.410;11.030;2023-06-24T12:48:55;98719.66;;;25.77;53.14
68226;BME280;55045;49.410;11.030;2023-06-24T12:51:59;98719.28;;;26.58;50.46
68226;BME280;55045;49.410;11.030;2023-06-24T12:55:05;98707.00;;;26.57;53.27
68226;BME280;55045;49.410;11.030;2023-06-24T12:58:09;98717.38;;;26.93;52.84
68226;BME280;55045;49.410;11.030;2023-06-24T13:01:12;98717.00;;;26.72;52.74
68226;BME280;55045;49.410;11.030;2023-06-24T13:04:18;98706.69;;;26.00;51.82
68226;BME280;55045;49.410;11.030;2023-06-24T13:07:24;98701.09;;;26.11;51.79
68226;BME280;55045;49.410;11.030;2023-06-24T13:10:29;98702.84;;;26.29;54.67
68226;BME280;55045;49.410;11.030;2023-06-24T13:13:32;98694.31;;;25.65;52.23
68226;BME280;55045;49.410;11.030;2023-06-24T13:16:36;98698.00;;;25.46;53.46
68226;BME280;55045;49.410;11.030;2023-06-24T13:19:39;98693.28;;;25.22;56.23
68226;BME280;55045;49.410;11.030;2023-06-24T13:22:42;98691.28;;;25.60;56.12
68226;BME280;55045;49.410;11.030;2023-06-24T13:25:47;98692.66;;;25.90;55.15
68226;BME280;55045;49.410;11.030;2023-06-24T13:28:50;98692.06;;;26.04;55.02
68226;BME280;55045;49.410;11.030;2023-06-24T13:31:54;98689.00;;;25.91;54.56
68226;BME280;55045;49.410;11.030;2023-06-24T13:34:58;98692.78;;;26.14;53.21
68226;BME280;55045;49.410;11.030;2023-06-24T13:38:01;98678.81;;;25.61;53.62
68226;BME280;55045;49.410;11.030;2023-06-24T13:41:07;98686.53;;;26.58;53.20
68226;BME280;55045;49.410;11.030;2023-06-24T13:44:10;98668.16;;;26.04;52.81
68226;BME280;55045;49.410;11.030;2023-06-24T13:47:13;98676.41;;;26.69;51.35
68226;BME280;55045;49.410;11.030;2023-06-24T13:50:17;98677.16;;;26.11;50.12
68226;BME280;55045;49.410;11.030;2023-06-24T13:53:20;98674.75;;;26.34;47.74
68226;BME280;55045;49.410;11.030;2023-06-24T13:56:25;98662.13;;;25.68;46.90
68226;BME280;55045;49.410;11.030;2023-06-24T13:59:29;98671.28;;;26.00;51.23
68226;BME280;55045;49.410;11.030;2023-06-24T14:02:32;98670.63;;;25.54;55.84
68226;BME280;55045;49.410;11.030;2023-06-24T14:05:36;98668.72;;;25.20;53.13
68226;BME280;55045;49.410;11.030;2023-06-24T14:08:40;98665.53;;;25.61;53.41
68226;BME280;55045;49.410;11.030;2023-06-24T14:11:44;98669.63;;;25.99;52.67
68226;BME280;55045;49.410;11.030;2023-06-24T14:14:47;98662.72;;;26.14;51.97
68226;BME280;55045;49.410;11.030;2023-06-24T14:17:51;98663.88;;;26.11;51.01
68226;BME280;55045;49.410;11.030;2023-06-24T14:20:54;98656.38;;;26.07;49.79
68226;BME280;55045;49.410;11.030;2023-06-24T14:23:57;98653.91;;;25.79;48.76
68226;BME280;55045;49.410;11.030;2023-06-24T14:27:17;98639.28;;;26.09;50.93
68226;BME280;55045;49.410;11.030;2023-06-24T14:30:21;98643.84;;;25.91;50.52
68226;BME280;55045;49.410;11.030;2023-06-24T14:33:24;98651.00;;;26.33;47.59
68226;BME280;55045;49.410;11.030;2023-06-24T14:36:27;98644.50;;;26.35;46.84
68226;BME280;55045;49.410;11.030;2023-06-24T14:39:30;98639.84;;;26.72;43.30
68226;BME280;55045;49.410;11.030;2023-06-24T14:42:36;98642.81;;;26.60;43.68
68226;BME280;55045;49.410;11.030;2023-06-24T14:45:39;98639.94;;;26.37;43.48
68226;BME280;55045;49.410;11.030;2023-06-24T14:48:42;98640.69;;;26.30;45.92
68226;BME280;55045;49.410;11.030;2023-06-24T14:51:45;98635.38;;;26.30;47.24
68226;BME280;55045;49.410;11.030;2023-06-24T14:54:49;98622.69;;;26.74;47.13
68226;BME280;55045;49.410;11.030;2023-06-24T14:57:53;98627.13;;;26.41;45.76
68226;BME280;55045;49.410;11.030;2023-06-24T15:00:56;98630.16;;;26.62;46.02
68226;BME280;55045;49.410;11.030;2023-06-24T15:04:00;98624.66;;;26.13;46.01
68226;BME280;55045;49.410;11.030;2023-06-24T15:07:03;98619.00;;;26.51;45.87
68226;BME280;55045;49.410;11.030;2023-06-24T15:10:07;98621.00;;;26.14;47.14
68226;BME280;55045;49.410;11.030;2023-06-24T15:13:11;98615.84;;;26.13;44.88
68226;BME280;55045;49.410;11.030;2023-06-24T15:16:15;98614.72;;;25.55;45.59
68226;BME280;55045;49.410;11.030;2023-06-24T15:19:18;98603.53;;;26.04;44.59
68226;BME280;55045;49.410;11.030;2023-06-24T15:22:21;98606.28;;;25.86;44.04
68226;BME280;55045;49.410;11.030;2023-06-24T15:25:25;98602.59;;;25.79;44.21
68226;BME280;55045;49.410;11.030;2023-06-24T15:28:30;98605.31;;;25.35;46.34
68226;BME280;55045;49.410;11.030;2023-06-24T15:34:11;98594.97;;;25.58;43.20
68226;BME280;55045;49.410;11.030;2023-06-24T15:37:14;98598.91;;;25.72;42.64
68226;BME280;55045;49.410;11.030;2023-06-24T15:40:18;98594.88;;;26.02;43.32
68226;BME280;55045;49.410;11.030;2023-06-24T15:43:21;98593.94;;;26.11;43.76
68226;BME280;55045;49.410;11.030;2023-06-24T15:46:24;98596.72;;;26.01;42.85
68226;BME280;55045;49.410;11.030;2023-06-24T15:49:29;98586.91;;;25.68;43.67
68226;BME280;55045;49.410;11.030;2023-06-24T15:52:32;98587.97;;;25.75;42.89
68226;BME280;55045;49.410;11.030;2023-06-24T15:55:35;98582.97;;;26.06;42.86
68226;BME280;55045;49.410;11.030;2023-06-24T15:58:39;98584.78;;;25.71;43.78
68226;BME280;55045;49.410;11.030;2023-06-24T16:01:42;98580.88;;;25.58;42.12
68226;BME280;55045;49.410;11.030;2023-06-24T16:04:47;98580.75;;;25.67;44.78
68226;BME280;55045;49.410;11.030;2023-06-24T16:07:50;98581.59;;;25.68;43.54